createdAt,value
2023-02-13T00:00:23.669Z,103092.94
2023-02-13T00:02:52.756Z,103099.88
2023-02-13T00:05:20.551Z,103096.28
2023-02-13T00:07:48.222Z,103091.78
2023-02-13T00:10:16.044Z,103098.75
2023-02-13T00:12:43.709Z,103090.81
2023-02-13T00:15:11.764Z,103095.13
2023-02-13T00:17:39.499Z,103096.84
2023-02-13T00:20:11.439Z,103087.47
2023-02-13T00:22:39.417Z,103085.84
2023-02-13T00:25:07.983Z,103076.28
2023-02-13T00:27:35.652Z,103067.56
2023-02-13T00:30:03.347Z,103067.50
2023-02-13T00:32:31.752Z,103062.28
2023-02-13T00:34:59.441Z,103065.78
2023-02-13T00:37:28.595Z,103053.66
2023-02-13T00:39:56.214Z,103061.50
2023-02-13T00:42:26.555Z,103057.19
2023-02-13T00:44:54.476Z,103065.78
2023-02-13T00:47:22.506Z,103068.41
2023-02-13T00:49:50.133Z,103067.50
2023-02-13T00:52:17.818Z,103067.59
2023-02-13T00:54:47.742Z,103071.09
2023-02-13T00:57:15.520Z,103077.16
2023-02-13T00:59:43.190Z,103073.63
2023-02-13T01:02:10.837Z,103075.28
2023-02-13T01:04:38.698Z,103072.69
2023-02-13T01:07:06.391Z,103081.50
2023-02-13T01:09:34.186Z,103056.19
2023-02-13T01:12:03.207Z,103059.84
2023-02-13T01:14:30.944Z,103055.47
2023-02-13T01:16:58.619Z,103058.09
2023-02-13T01:19:26.464Z,103071.94
2023-02-13T01:21:54.480Z,103073.66
2023-02-13T01:24:22.138Z,103079.75
2023-02-13T01:26:49.842Z,103079.72
2023-02-13T01:29:18.967Z,103066.66
2023-02-13T01:31:46.837Z,103058.97
2023-02-13T01:34:14.626Z,103060.72
2023-02-13T01:36:42.269Z,103059.91
2023-02-13T01:39:13.195Z,103066.91
2023-02-13T01:41:41.067Z,103066.00
2023-02-13T01:44:42.142Z,103064.22
2023-02-13T01:47:12.006Z,103060.75
2023-02-13T01:49:40.536Z,103063.16
2023-02-13T01:52:09.244Z,103070.09
2023-02-13T01:54:37.370Z,103064.81
2023-02-13T01:57:06.890Z,103056.09
2023-02-13T01:59:36.250Z,103060.47
2023-02-13T02:02:04.157Z,103058.72
2023-02-13T02:04:35.946Z,103052.56
2023-02-13T02:07:05.686Z,103055.22
2023-02-13T02:09:36.656Z,103056.09
2023-02-13T02:12:08.311Z,103049.06
2023-02-13T02:14:36.330Z,103041.28
2023-02-13T02:17:04.165Z,103030.03
2023-02-13T02:19:38.083Z,103040.47
2023-02-13T02:22:33.341Z,103046.59
2023-02-13T02:25:15.398Z,103043.88
2023-02-13T02:28:12.272Z,103043.97
2023-02-13T02:31:21.539Z,103037.81
2023-02-13T02:34:00.136Z,103041.31
2023-02-13T02:36:36.500Z,103042.13
2023-02-13T02:39:15.056Z,103042.03
2023-02-13T02:41:58.984Z,103029.00
2023-02-13T02:44:34.268Z,103026.50
2023-02-13T02:47:29.008Z,103027.44
2023-02-13T02:50:13.487Z,103026.59
2023-02-13T02:52:47.352Z,103020.53
2023-02-13T02:55:22.320Z,103023.16
2023-02-13T02:58:11.236Z,103027.56
2023-02-13T03:00:59.800Z,103018.84
2023-02-13T03:03:45.900Z,103021.41
2023-02-13T03:06:17.798Z,103026.66
2023-02-13T03:09:05.183Z,103026.56
2023-02-13T03:11:50.830Z,103019.50
2023-02-13T03:14:21.749Z,103018.59
2023-02-13T03:17:07.386Z,103023.72
2023-02-13T03:20:02.800Z,103021.31
2023-02-13T03:22:40.117Z,103018.69
2023-02-13T03:25:13.235Z,103012.63
2023-02-13T03:28:05.197Z,103024.00
2023-02-13T03:30:42.039Z,103018.75
2023-02-13T03:33:20.697Z,103017.06
2023-02-13T03:36:08.970Z,103025.78
2023-02-13T03:38:43.648Z,103023.13
2023-02-13T03:41:21.486Z,103028.25
2023-02-13T03:43:57.508Z,103022.94
2023-02-13T03:46:26.386Z,103021.34
2023-02-13T03:49:12.323Z,103024.81
2023-02-13T03:51:43.774Z,103024.00
2023-02-13T03:54:19.544Z,103015.34
2023-02-13T03:57:05.905Z,103014.47
2023-02-13T03:59:35.563Z,103020.53
2023-02-13T04:02:08.320Z,103022.22
2023-02-13T04:04:41.687Z,103029.97
2023-02-13T04:07:11.979Z,103025.53
2023-02-13T04:09:42.677Z,103024.78
2023-02-13T04:12:15.616Z,103026.50
2023-02-13T04:14:48.805Z,103019.53
2023-02-13T04:17:20.659Z,103022.97
2023-02-13T04:19:48.777Z,103029.09
2023-02-13T04:22:16.552Z,103021.25
2023-02-13T04:24:45.766Z,103024.75
2023-02-13T04:27:15.082Z,103017.69
2023-02-13T04:29:42.945Z,103013.38
2023-02-13T04:32:11.121Z,103020.38
2023-02-13T04:34:39.245Z,103021.16
2023-02-13T04:37:06.998Z,103009.84
2023-02-13T04:39:34.732Z,103015.00
2023-02-13T04:42:03.836Z,103003.84
2023-02-13T04:44:31.548Z,103009.91
2023-02-13T04:46:59.243Z,103007.28
2023-02-13T04:49:26.981Z,103015.91
2023-02-13T04:51:54.679Z,103013.19
2023-02-13T04:54:22.309Z,103004.53
2023-02-13T04:56:49.934Z,102996.84
2023-02-13T04:59:18.995Z,102988.19
2023-02-13T05:01:46.868Z,103003.94
2023-02-13T05:04:16.320Z,103009.06
2023-02-13T05:06:44.225Z,103007.22
2023-02-13T05:09:12.116Z,103016.78
2023-02-13T05:11:39.791Z,103003.81
2023-02-13T05:14:07.547Z,103009.09
2023-02-13T05:16:36.599Z,102999.50
2023-02-13T05:19:04.381Z,103006.50
2023-02-13T05:21:49.789Z,103005.59
2023-02-13T05:24:20.137Z,102998.66
2023-02-13T05:26:48.262Z,103002.13
2023-02-13T05:29:22.551Z,103008.06
2023-02-13T05:31:52.915Z,103010.59
2023-02-13T05:34:21.127Z,102999.25
2023-02-13T05:36:48.857Z,102992.44
2023-02-13T05:39:16.738Z,102992.44
2023-02-13T05:41:44.833Z,103000.31
2023-02-13T05:44:12.722Z,102996.88
2023-02-13T05:46:41.759Z,102995.00
2023-02-13T05:49:11.710Z,102994.97
2023-02-13T05:51:39.489Z,102997.59
2023-02-13T05:54:07.192Z,103001.91
2023-02-13T05:56:34.901Z,102998.47
2023-02-13T05:59:02.644Z,103001.00
2023-02-13T06:01:30.352Z,103010.56
2023-02-13T06:03:59.393Z,103017.53
2023-02-13T06:06:29.525Z,103003.63
2023-02-13T06:08:57.194Z,103006.28
2023-02-13T06:11:24.832Z,103003.00
2023-02-13T06:13:52.566Z,103009.97
2023-02-13T06:16:20.488Z,103009.06
2023-02-13T06:18:48.236Z,103016.03
2023-02-13T06:21:15.899Z,103019.44
2023-02-13T06:23:45.160Z,103011.63
2023-02-13T06:26:12.858Z,103014.38
2023-02-13T06:28:40.603Z,103024.84
2023-02-13T06:31:08.418Z,103022.25
2023-02-13T06:33:36.225Z,103028.31
2023-02-13T06:36:04.526Z,103028.34
2023-02-13T06:38:32.298Z,103027.50
2023-02-13T06:41:03.053Z,103029.28
2023-02-13T06:43:30.761Z,103035.38
2023-02-13T06:45:58.492Z,103040.69
2023-02-13T06:48:26.398Z,103041.59
2023-02-13T06:50:54.242Z,103047.69
2023-02-13T06:53:24.947Z,103045.91
2023-02-13T06:55:53.997Z,103050.22
2023-02-13T06:58:23.877Z,103051.09
2023-02-13T07:00:51.833Z,103061.53
2023-02-13T07:03:19.644Z,103061.44
2023-02-13T07:05:47.493Z,103059.69
2023-02-13T07:08:15.173Z,103058.97
2023-02-13T07:10:43.156Z,103056.38
2023-02-13T07:13:11.321Z,103058.13
2023-02-13T07:15:40.580Z,103064.25
2023-02-13T07:18:08.267Z,103052.00
2023-02-13T07:20:36.270Z,103055.53
2023-02-13T07:23:06.195Z,103056.41
2023-02-13T07:25:33.917Z,103062.50
2023-02-13T07:28:05.307Z,103068.53
2023-02-13T07:30:34.122Z,103064.97
2023-02-13T07:33:04.143Z,103074.53
2023-02-13T07:35:32.457Z,103063.25
2023-02-13T07:38:00.545Z,103049.41
2023-02-13T07:40:28.416Z,103059.84
2023-02-13T07:42:57.028Z,103063.25
2023-02-13T07:45:24.770Z,103064.94
2023-02-13T07:47:52.853Z,103077.13
2023-02-13T07:50:21.970Z,103068.25
2023-02-13T07:52:54.668Z,103070.84
2023-02-13T07:55:22.458Z,103070.03
2023-02-13T07:57:50.579Z,103060.50
2023-02-13T08:00:20.074Z,103061.41
2023-02-13T08:02:48.095Z,103070.91
2023-02-13T08:05:16.118Z,103061.38
2023-02-13T08:07:45.151Z,103060.53
2023-02-13T08:10:31.582Z,103069.16
2023-02-13T08:12:59.460Z,103077.66
2023-02-13T08:15:27.404Z,103073.22
2023-02-13T08:17:55.052Z,103071.53
2023-02-13T08:20:23.980Z,103072.50
2023-02-13T08:22:53.082Z,103071.63
2023-02-13T08:25:21.052Z,103068.91
2023-02-13T08:27:48.797Z,103064.63
2023-02-13T08:30:17.029Z,103071.31
2023-02-13T08:32:53.806Z,103067.78
2023-02-13T08:35:22.715Z,103074.75
2023-02-13T08:37:50.516Z,103079.66
2023-02-13T08:40:19.963Z,103080.34
2023-02-13T08:42:47.672Z,103083.69
2023-02-13T08:45:15.419Z,103082.59
2023-02-13T08:47:43.142Z,103087.69
2023-02-13T08:50:11.608Z,103092.72
2023-02-13T08:52:39.266Z,103085.94
2023-02-13T08:55:07.472Z,103089.22
2023-02-13T08:57:36.550Z,103089.22
2023-02-13T09:00:05.978Z,103096.03
2023-02-13T09:02:33.691Z,103105.53
2023-02-13T09:05:01.492Z,103097.53
2023-02-13T09:07:29.234Z,103099.38
2023-02-13T09:09:56.972Z,103110.63
2023-02-13T09:12:24.676Z,103114.75
2023-02-13T09:14:53.746Z,103110.47
2023-02-13T09:17:21.383Z,103105.97
2023-02-13T09:19:49.087Z,103105.19
2023-02-13T09:22:17.327Z,103100.03
2023-02-13T09:24:45.046Z,103106.19
2023-02-13T09:27:12.786Z,103104.59
2023-02-13T09:29:40.486Z,103114.81
2023-02-13T09:32:09.665Z,103111.25
2023-02-13T09:34:37.453Z,103119.94
2023-02-13T09:37:05.155Z,103130.13
2023-02-13T09:39:32.864Z,103117.59
2023-02-13T09:42:02.233Z,103107.47
2023-02-13T09:44:36.017Z,103109.88
2023-02-13T09:47:06.891Z,103114.97
2023-02-13T09:49:39.948Z,103103.25
2023-02-13T09:52:09.751Z,103110.97
2023-02-13T09:54:37.484Z,103115.91
2023-02-13T09:57:09.520Z,103112.97
2023-02-13T09:59:47.109Z,103112.25
2023-02-13T10:02:35.773Z,103113.78
2023-02-13T10:05:12.383Z,103113.53
2023-02-13T10:07:45.333Z,103102.94
2023-02-13T10:10:21.239Z,103104.91
2023-02-13T10:12:57.908Z,103107.25
2023-02-13T10:15:31.588Z,103108.53
2023-02-13T10:18:02.715Z,103104.53
2023-02-13T10:20:34.016Z,103095.59
2023-02-13T10:23:06.895Z,103092.97
2023-02-13T10:25:41.639Z,103100.13
2023-02-13T10:28:13.895Z,103102.25
2023-02-13T10:30:49.389Z,103087.44
2023-02-13T10:33:20.209Z,103091.09
2023-02-13T10:35:53.493Z,103082.81
2023-02-13T10:38:23.573Z,103088.16
2023-02-13T10:41:06.984Z,103084.50
2023-02-13T10:43:40.929Z,103090.25
2023-02-13T10:46:15.842Z,103085.44
2023-02-13T10:48:53.736Z,103087.22
2023-02-13T10:51:28.906Z,103093.91
2023-02-13T10:54:12.943Z,103080.63
2023-02-13T10:56:45.174Z,103084.59
2023-02-13T10:59:24.887Z,103086.31
2023-02-13T11:01:55.735Z,103086.88
2023-02-13T11:04:23.899Z,103080.75
2023-02-13T11:06:57.028Z,103087.53
2023-02-13T11:09:25.263Z,103080.19
2023-02-13T11:11:53.959Z,103083.56
2023-02-13T11:14:23.298Z,103088.63
2023-02-13T11:16:55.243Z,103071.88
2023-02-13T11:19:26.636Z,103080.41
2023-02-13T11:22:00.427Z,103074.63
2023-02-13T11:24:29.405Z,103065.72
2023-02-13T11:27:01.209Z,103070.59
2023-02-13T11:29:30.551Z,103054.19
2023-02-13T11:32:19.589Z,103051.63
2023-02-13T11:34:47.826Z,103048.97
2023-02-13T11:37:20.156Z,103044.25
2023-02-13T11:39:51.197Z,103037.94
2023-02-13T11:42:25.175Z,103037.78
2023-02-13T11:44:54.746Z,103030.56
2023-02-13T11:47:40.688Z,103037.91
2023-02-13T11:50:22.415Z,103035.34
2023-02-13T11:53:11.792Z,103040.00
2023-02-13T11:55:40.518Z,103032.44
2023-02-13T11:58:25.153Z,103033.09
2023-02-13T12:01:09.957Z,103036.53
2023-02-13T12:03:38.881Z,103034.13
2023-02-13T12:06:12.902Z,103024.41
2023-02-13T12:08:43.818Z,103034.88
2023-02-13T12:11:21.927Z,103030.56
2023-02-13T12:13:50.299Z,103021.13
2023-02-13T12:16:23.676Z,103035.00
2023-02-13T12:18:54.203Z,103032.69
2023-02-13T12:21:35.167Z,103021.41
2023-02-13T12:24:07.695Z,103008.31
2023-02-13T12:26:39.784Z,102999.25
2023-02-13T12:29:18.424Z,103002.72
2023-02-13T12:32:01.416Z,103002.38
2023-02-13T12:34:51.206Z,102989.81
2023-02-13T12:37:28.593Z,102979.88
2023-02-13T12:40:13.264Z,102981.56
2023-02-13T12:42:49.236Z,102981.72
2023-02-13T12:45:25.287Z,102985.56
2023-02-13T12:48:18.826Z,102977.16
2023-02-13T12:50:55.487Z,102967.84
2023-02-13T12:53:36.688Z,102967.94
2023-02-13T12:56:28.920Z,102960.91
2023-02-13T12:59:10.208Z,102963.38
2023-02-13T13:01:59.051Z,102962.09
2023-02-13T13:04:37.086Z,102961.06
2023-02-13T13:07:44.872Z,102960.91
2023-02-13T13:10:22.301Z,102945.94
2023-02-13T13:12:56.897Z,102949.78
2023-02-13T13:15:33.996Z,102953.97
2023-02-13T13:18:10.651Z,102934.66
2023-02-13T13:20:53.838Z,102944.19
2023-02-13T13:23:24.050Z,102940.50
2023-02-13T13:26:01.503Z,102932.66
2023-02-13T13:28:34.413Z,102934.00
2023-02-13T13:31:03.001Z,102921.09
2023-02-13T13:33:31.499Z,102922.41
2023-02-13T13:36:04.848Z,102922.44
2023-02-13T13:38:42.196Z,102919.94
2023-02-13T13:41:13.567Z,102924.56
2023-02-13T13:43:55.946Z,102924.31
2023-02-13T13:46:32.241Z,102919.94
2023-02-13T13:49:10.762Z,102922.31
2023-02-13T13:51:38.889Z,102923.13
2023-02-13T13:54:21.423Z,102928.91
2023-02-13T13:57:12.615Z,102924.50
2023-02-13T14:00:14.635Z,102925.50
2023-02-13T14:02:46.688Z,102910.59
2023-02-13T14:05:30.512Z,102918.28
2023-02-13T14:07:59.803Z,102903.69
2023-02-13T14:11:06.966Z,102906.31
2023-02-13T14:13:36.815Z,102904.53
2023-02-13T14:16:05.812Z,102906.13
2023-02-13T14:18:35.664Z,102904.13
2023-02-13T14:21:04.394Z,102902.44
2023-02-13T14:23:35.798Z,102899.66
2023-02-13T14:26:36.977Z,102896.25
2023-02-13T14:29:29.462Z,102893.41
2023-02-13T14:32:03.437Z,102889.09
2023-02-13T14:34:34.272Z,102901.19
2023-02-13T14:37:35.269Z,102897.63
2023-02-13T14:40:53.656Z,102898.13
2023-02-13T14:43:38.974Z,102893.97
2023-02-13T14:46:26.624Z,102886.25
2023-02-13T14:48:58.341Z,102887.03
2023-02-13T14:51:33.032Z,102885.28
2023-02-13T14:54:06.010Z,102875.91
2023-02-13T14:56:34.077Z,102880.75
2023-02-13T14:59:11.081Z,102882.28
2023-02-13T15:01:45.164Z,102884.00
2023-02-13T15:04:17.831Z,102891.69
2023-02-13T15:06:47.266Z,102887.28
2023-02-13T15:09:27.650Z,102889.16
2023-02-13T15:11:55.372Z,102876.97
2023-02-13T15:14:26.790Z,102875.72
2023-02-13T15:16:58.845Z,102868.69
2023-02-13T15:19:28.259Z,102867.88
2023-02-13T15:21:59.287Z,102864.63
2023-02-13T15:24:27.358Z,102864.56
2023-02-13T15:27:00.790Z,102866.16
2023-02-13T15:29:38.021Z,102867.41
2023-02-13T15:32:22.626Z,102867.34
2023-02-13T15:34:50.492Z,102866.50
2023-02-13T15:37:24.642Z,102862.31
2023-02-13T15:39:52.362Z,102862.38
2023-02-13T15:42:20.363Z,102859.72
2023-02-13T15:44:50.272Z,102859.69
2023-02-13T15:47:20.316Z,102863.13
2023-02-13T15:49:50.315Z,102860.78
2023-02-13T15:52:21.714Z,102859.09
2023-02-13T15:54:53.303Z,102856.50
2023-02-13T15:57:21.622Z,102853.97
2023-02-13T15:59:49.882Z,102847.81
2023-02-13T16:02:21.141Z,102845.28
2023-02-13T16:04:50.772Z,102845.34
2023-02-13T16:07:18.574Z,102846.22
2023-02-13T16:09:46.315Z,102845.53
2023-02-13T16:12:24.295Z,102845.69
2023-02-13T16:14:54.836Z,102852.88
2023-02-13T16:17:29.890Z,102844.28
2023-02-13T16:20:01.008Z,102849.66
2023-02-13T16:22:34.848Z,102847.00
2023-02-13T16:25:11.016Z,102841.06
2023-02-13T16:27:43.412Z,102842.94
2023-02-13T16:30:35.872Z,102843.06
2023-02-13T16:33:24.098Z,102843.25
2023-02-13T16:35:52.618Z,102841.66
2023-02-13T16:38:29.472Z,102847.91
2023-02-13T16:40:59.002Z,102838.34
2023-02-13T16:43:44.186Z,102841.94
2023-02-13T16:46:26.330Z,102846.47
2023-02-13T16:49:06.850Z,102849.22
2023-02-13T16:51:37.908Z,102842.34
2023-02-13T16:54:07.109Z,102844.16
2023-02-13T16:56:42.006Z,102859.97
2023-02-13T16:59:29.670Z,102864.38
2023-02-13T17:02:19.097Z,102866.16
2023-02-13T17:04:49.524Z,102863.59
2023-02-13T17:07:20.552Z,102862.78
2023-02-13T17:09:54.271Z,102865.47
2023-02-13T17:12:22.729Z,102868.16
2023-02-13T17:14:52.017Z,102870.84
2023-02-13T17:17:20.893Z,102867.44
2023-02-13T17:19:48.995Z,102872.72
2023-02-13T17:22:24.160Z,102871.06
2023-02-13T17:24:51.813Z,102869.38
2023-02-13T17:27:21.239Z,102866.81
2023-02-13T17:29:51.612Z,102867.72
2023-02-13T17:32:20.930Z,102873.00
2023-02-13T17:34:48.725Z,102867.81
2023-02-13T17:37:19.920Z,102862.59
2023-02-13T17:39:48.321Z,102866.97
2023-02-13T17:42:22.149Z,102868.75
2023-02-13T17:44:51.504Z,102867.03
2023-02-13T17:47:19.710Z,102860.94
2023-02-13T17:49:47.814Z,102865.31
2023-02-13T17:52:17.665Z,102867.97
2023-02-13T17:54:46.093Z,102879.31
2023-02-13T17:57:14.578Z,102874.03
2023-02-13T17:59:42.516Z,102874.06
2023-02-13T18:02:21.935Z,102886.28
2023-02-13T18:04:50.529Z,102888.06
2023-02-13T18:07:20.931Z,102882.81
2023-02-13T18:09:48.651Z,102881.09
2023-02-13T18:12:17.846Z,102876.72
2023-02-13T18:14:45.838Z,102874.97
2023-02-13T18:17:13.728Z,102878.47
2023-02-13T18:19:42.876Z,102873.25
2023-02-13T18:22:11.077Z,102867.13
2023-02-13T18:24:41.076Z,102869.75
2023-02-13T18:27:11.195Z,102871.50
2023-02-13T18:29:39.471Z,102871.50
2023-02-13T18:32:10.230Z,102874.13
2023-02-13T18:34:38.694Z,102875.00
2023-02-13T18:37:08.304Z,102872.38
2023-02-13T18:39:36.042Z,102875.84
2023-02-13T18:42:03.767Z,102877.59
2023-02-13T18:44:32.011Z,102873.25
2023-02-13T18:47:00.265Z,102865.34
2023-02-13T18:49:28.034Z,102865.31
2023-02-13T18:51:55.731Z,102864.44
2023-02-13T18:54:24.916Z,102866.19
2023-02-13T18:56:52.597Z,102866.19
2023-02-13T18:59:20.323Z,102866.19
2023-02-13T19:01:48.063Z,102864.44
2023-02-13T19:04:15.880Z,102862.69
2023-02-13T19:06:45.464Z,102859.22
2023-02-13T19:09:13.270Z,102866.25
2023-02-13T19:11:42.748Z,102859.28
2023-02-13T19:14:13.588Z,102855.81
2023-02-13T19:16:41.980Z,102855.81
2023-02-13T19:19:09.931Z,102849.66
2023-02-13T19:21:38.859Z,102846.19
2023-02-13T19:24:09.274Z,102840.03
2023-02-13T19:26:37.022Z,102840.03
2023-02-13T19:29:06.047Z,102844.41
2023-02-13T19:31:34.201Z,102849.63
2023-02-13T19:34:02.168Z,102844.41
2023-02-13T19:36:30.826Z,102837.41
2023-02-13T19:38:59.894Z,102846.13
2023-02-13T19:41:29.005Z,102849.63
2023-02-13T19:43:56.684Z,102845.25
2023-02-13T19:46:27.391Z,102852.22
2023-02-13T19:48:55.636Z,102852.22
2023-02-13T19:51:25.246Z,102847.00
2023-02-13T19:53:57.053Z,102840.88
2023-02-13T19:56:26.304Z,102847.84
2023-02-13T19:58:55.267Z,102845.22
2023-02-13T20:01:25.910Z,102853.06
2023-02-13T20:03:54.074Z,102848.69
2023-02-13T20:06:23.049Z,102856.53
2023-02-13T20:08:51.446Z,102851.31
2023-02-13T20:11:20.528Z,102857.41
2023-02-13T20:13:48.559Z,102853.91
2023-02-13T20:16:17.621Z,102861.75
2023-02-13T20:18:46.663Z,102860.91
2023-02-13T20:21:16.051Z,102862.63
2023-02-13T20:23:44.663Z,102868.72
2023-02-13T20:26:15.147Z,102867.84
2023-02-13T20:28:43.776Z,102874.81
2023-02-13T20:31:12.050Z,102871.34
2023-02-13T20:33:40.453Z,102866.97
2023-02-13T20:36:14.674Z,102867.88
2023-02-13T20:38:42.796Z,102869.59
2023-02-13T20:41:11.161Z,102864.34
2023-02-13T20:43:39.021Z,102873.06
2023-02-13T20:46:07.179Z,102865.19
2023-02-13T20:48:36.260Z,102870.44
2023-02-13T20:51:05.959Z,102869.56
2023-02-13T20:53:35.315Z,102868.72
2023-02-13T20:56:04.968Z,102860.00
2023-02-13T20:58:32.817Z,102873.97
2023-02-13T21:01:01.053Z,102866.97
2023-02-13T21:03:29.011Z,102874.78
2023-02-13T21:05:56.740Z,102871.28
2023-02-13T21:08:24.396Z,102871.22
2023-02-13T21:10:53.439Z,102872.97
2023-02-13T21:13:21.086Z,102874.69
2023-02-13T21:15:50.634Z,102875.53
2023-02-13T21:18:20.972Z,102877.25
2023-02-13T21:20:49.821Z,102870.28
2023-02-13T21:23:17.604Z,102876.34
2023-02-13T21:25:45.415Z,102872.88
2023-02-13T21:28:14.524Z,102869.34
2023-02-13T21:30:43.043Z,102868.50
2023-02-13T21:33:10.799Z,102864.97
2023-02-13T21:35:38.519Z,102865.84
2023-02-13T21:38:06.218Z,102864.97
2023-02-13T21:40:33.980Z,102863.22
2023-02-13T21:43:01.722Z,102865.84
2023-02-13T21:45:30.856Z,102869.31
2023-02-13T21:47:58.552Z,102870.16
2023-02-13T21:50:26.291Z,102855.34
2023-02-13T21:52:53.971Z,102862.28
2023-02-13T21:55:21.651Z,102851.84
2023-02-13T21:57:49.737Z,102853.56
2023-02-13T22:00:18.200Z,102855.34
2023-02-13T22:02:47.218Z,102852.72
2023-02-13T22:05:14.963Z,102850.97
2023-02-13T22:07:56.593Z,102857.94
2023-02-13T22:10:24.277Z,102852.69
2023-02-13T22:12:53.286Z,102849.19
2023-02-13T22:15:21.673Z,102841.28
2023-02-13T22:17:50.703Z,102836.91
2023-02-13T22:20:18.840Z,102836.91
2023-02-13T22:22:46.736Z,102831.69
2023-02-13T22:25:14.612Z,102834.25
2023-02-13T22:27:46.875Z,102835.03
2023-02-13T22:30:15.413Z,102837.56
2023-02-13T22:32:43.179Z,102834.13
2023-02-13T22:35:12.310Z,102833.25
2023-02-13T22:37:40.072Z,102828.03
2023-02-13T22:40:08.626Z,102844.50
2023-02-13T22:42:36.353Z,102842.78
2023-02-13T22:45:04.241Z,102845.34
2023-02-13T22:47:31.972Z,102839.28
2023-02-13T22:49:59.617Z,102839.25
2023-02-13T22:52:28.643Z,102842.69
2023-02-13T22:54:56.335Z,102837.50
2023-02-13T22:57:24.103Z,102846.94
2023-02-13T22:59:51.746Z,102841.78
2023-02-13T23:02:19.446Z,102836.53
2023-02-13T23:04:48.358Z,102848.56
2023-02-13T23:07:18.344Z,102848.50
2023-02-13T23:09:47.415Z,102848.59
2023-02-13T23:12:33.042Z,102850.31
2023-02-13T23:15:00.996Z,102841.66
2023-02-13T23:17:46.149Z,102841.66
2023-02-13T23:20:13.980Z,102846.81
2023-02-13T23:22:41.665Z,102840.75
2023-02-13T23:25:10.785Z,102838.06
2023-02-13T23:27:39.137Z,102835.41
2023-02-13T23:30:08.634Z,102839.72
2023-02-13T23:32:36.431Z,102845.81
2023-02-13T23:35:04.182Z,102835.38
2023-02-13T23:37:31.881Z,102834.47
2023-02-13T23:39:59.551Z,102834.50
2023-02-13T23:42:28.583Z,102831.03
2023-02-13T23:44:56.304Z,102835.34
2023-02-13T23:47:24.020Z,102829.25
2023-02-13T23:49:51.649Z,102824.91
2023-02-13T23:52:19.275Z,102823.19
2023-02-13T23:54:47.008Z,102828.34
2023-02-13T23:57:15.038Z,102826.63
2023-02-13T23:59:44.037Z,102817.94
